createdAt,value
2022-08-11T00:00:46.703Z,15.87
2022-08-11T00:01:54.070Z,15.80
2022-08-11T00:02:56.434Z,15.79
2022-08-11T00:04:03.317Z,15.81
2022-08-11T00:05:12.319Z,15.85
2022-08-11T00:06:23.192Z,15.88
2022-08-11T00:07:26.246Z,16.12
2022-08-11T00:08:32.330Z,16.07
2022-08-11T00:09:39.422Z,16.01
2022-08-11T00:10:41.872Z,15.94
2022-08-11T00:11:53.296Z,15.83
2022-08-11T00:13:04.245Z,15.77
2022-08-11T00:14:36.752Z,15.70
2022-08-11T00:15:43.671Z,15.70
2022-08-11T00:16:55.380Z,15.71
2022-08-11T00:18:01.176Z,15.71
2022-08-11T00:19:03.152Z,15.61
2022-08-11T00:20:15.901Z,15.51
2022-08-11T00:21:54.733Z,15.45
2022-08-11T00:22:45.147Z,15.42
2022-08-11T00:23:53.397Z,15.39
2022-08-11T00:25:01.618Z,15.30
2022-08-11T00:26:08.096Z,15.27
2022-08-11T00:27:09.635Z,15.38
2022-08-11T00:28:27.739Z,15.52
2022-08-11T00:29:29.689Z,15.41
2022-08-11T00:30:40.644Z,15.44
2022-08-11T00:31:49.497Z,15.35
2022-08-11T00:32:56.251Z,15.24
2022-08-11T00:34:01.052Z,15.38
2022-08-11T00:35:54.744Z,15.44
2022-08-11T00:36:39.001Z,15.27
2022-08-11T00:37:47.987Z,15.12
2022-08-11T00:38:52.138Z,15.14
2022-08-11T00:39:55.572Z,15.15
2022-08-11T00:41:08.276Z,15.25
2022-08-11T00:42:40.581Z,15.32
2022-08-11T00:44:00.804Z,15.27
2022-08-11T00:45:07.517Z,15.17
2022-08-11T00:46:27.225Z,15.07
2022-08-11T00:47:46.384Z,15.07
2022-08-11T00:49:06.794Z,15.08
2022-08-11T00:50:22.557Z,15.00
2022-08-11T00:52:04.725Z,14.96
2022-08-11T00:53:27.611Z,14.98
2022-08-11T00:54:33.123Z,14.99
2022-08-11T00:55:55.794Z,15.03
2022-08-11T00:57:37.181Z,15.03
2022-08-11T00:59:34.614Z,15.02
2022-08-11T01:01:03.390Z,14.98
2022-08-11T01:02:41.930Z,14.95
2022-08-11T01:04:09.965Z,14.92
2022-08-11T01:05:23.905Z,14.92
2022-08-11T01:06:46.597Z,14.97
2022-08-11T01:08:02.582Z,15.06
2022-08-11T01:09:23.549Z,15.09
2022-08-11T01:11:22.125Z,15.01
2022-08-11T01:12:45.107Z,14.94
2022-08-11T01:14:11.240Z,14.85
2022-08-11T01:15:38.894Z,14.89
2022-08-11T01:16:55.447Z,14.92
2022-08-11T01:18:21.403Z,14.93
2022-08-11T01:20:47.481Z,14.99
2022-08-11T01:22:05.090Z,15.01
2022-08-11T01:23:30.488Z,14.90
2022-08-11T01:24:50.597Z,14.79
2022-08-11T01:26:29.346Z,14.79
2022-08-11T01:27:49.145Z,14.78
2022-08-11T01:29:27.852Z,14.77
2022-08-11T01:30:55.540Z,14.69
2022-08-11T01:32:15.659Z,14.59
2022-08-11T01:33:48.190Z,14.58
2022-08-11T01:35:27.999Z,14.52
2022-08-11T01:37:02.113Z,14.53
2022-08-11T01:38:12.954Z,14.44
2022-08-11T01:39:32.802Z,14.43
2022-08-11T01:41:09.377Z,14.39
2022-08-11T01:42:35.069Z,14.42
2022-08-11T01:43:55.153Z,14.46
2022-08-11T01:45:25.160Z,14.41
2022-08-11T01:46:45.608Z,14.46
2022-08-11T01:48:22.672Z,14.53
2022-08-11T01:50:08.328Z,14.55
2022-08-11T01:51:17.937Z,14.60
2022-08-11T01:52:33.650Z,14.64
2022-08-11T01:53:42.517Z,14.56
2022-08-11T01:54:49.469Z,14.54
2022-08-11T01:56:07.849Z,14.55
2022-08-11T01:57:35.963Z,14.57
2022-08-11T01:59:05.510Z,14.50
2022-08-11T02:00:16.893Z,14.53
2022-08-11T02:01:36.412Z,14.62
2022-08-11T02:02:49.637Z,14.61
2022-08-11T02:04:03.063Z,14.70
2022-08-11T02:05:17.598Z,14.70
2022-08-11T02:06:40.490Z,14.61
2022-08-11T02:08:03.771Z,14.58
2022-08-11T02:09:20.103Z,14.61
2022-08-11T02:10:40.733Z,14.64
2022-08-11T02:11:48.056Z,14.60
2022-08-11T02:13:21.600Z,14.57
2022-08-11T02:15:04.629Z,14.58
2022-08-11T02:16:17.401Z,14.66
2022-08-11T02:17:37.593Z,14.67
2022-08-11T02:18:43.699Z,14.65
2022-08-11T02:20:25.010Z,14.65
2022-08-11T02:21:38.691Z,14.65
2022-08-11T02:23:01.837Z,14.71
2022-08-11T02:24:16.098Z,14.75
2022-08-11T02:25:38.888Z,14.80
2022-08-11T02:26:45.872Z,14.81
2022-08-11T02:28:01.059Z,14.85
2022-08-11T02:29:24.271Z,14.88
2022-08-11T02:30:31.369Z,14.89
2022-08-11T02:32:24.727Z,14.89
2022-08-11T02:33:16.813Z,14.87
2022-08-11T02:34:44.407Z,14.83
2022-08-11T02:36:24.908Z,14.71
2022-08-11T02:37:32.235Z,14.59
2022-08-11T02:38:48.157Z,14.53
2022-08-11T02:40:17.266Z,14.37
2022-08-11T02:41:50.146Z,14.29
2022-08-11T02:43:19.109Z,14.23
2022-08-11T02:44:57.815Z,14.21
2022-08-11T02:46:28.765Z,14.18
2022-08-11T02:47:46.875Z,14.25
2022-08-11T02:49:03.603Z,14.28
2022-08-11T02:50:29.355Z,14.23
2022-08-11T02:51:46.625Z,14.29
2022-08-11T02:52:59.175Z,14.19
2022-08-11T02:54:26.465Z,14.17
2022-08-11T02:56:06.660Z,14.26
2022-08-11T02:57:30.797Z,14.34
2022-08-11T02:58:51.488Z,14.34
2022-08-11T03:00:26.500Z,14.33
2022-08-11T03:01:41.021Z,14.30
2022-08-11T03:02:51.702Z,14.30
2022-08-11T03:04:10.745Z,14.32
2022-08-11T03:05:12.237Z,14.32
2022-08-11T03:06:41.246Z,14.34
2022-08-11T03:08:01.428Z,14.32
2022-08-11T03:09:08.788Z,14.32
2022-08-11T03:10:27.085Z,14.30
2022-08-11T03:11:34.275Z,14.21
2022-08-11T03:12:53.590Z,14.15
2022-08-11T03:14:07.626Z,14.15
2022-08-11T03:15:18.892Z,14.18
2022-08-11T03:16:45.485Z,14.20
2022-08-11T03:18:04.239Z,14.19
2022-08-11T03:19:28.291Z,14.19
2022-08-11T03:20:42.636Z,14.21
2022-08-11T03:22:02.933Z,14.25
2022-08-11T03:23:37.258Z,14.29
2022-08-11T03:25:00.548Z,14.30
2022-08-11T03:26:32.373Z,14.28
2022-08-11T03:27:52.664Z,14.33
2022-08-11T03:29:25.116Z,14.35
2022-08-11T03:30:45.376Z,14.42
2022-08-11T03:31:59.019Z,14.44
2022-08-11T03:33:15.329Z,14.46
2022-08-11T03:34:22.883Z,14.38
2022-08-11T03:35:24.630Z,14.41
2022-08-11T03:37:14.851Z,14.43
2022-08-11T03:38:18.708Z,14.43
2022-08-11T03:39:56.203Z,14.45
2022-08-11T03:41:49.353Z,14.46
2022-08-11T03:42:57.752Z,14.39
2022-08-11T03:44:25.393Z,14.36
2022-08-11T03:45:41.158Z,14.41
2022-08-11T03:47:11.465Z,14.42
2022-08-11T03:48:38.224Z,14.42
2022-08-11T03:49:58.481Z,14.41
2022-08-11T03:51:22.980Z,14.42
2022-08-11T03:52:46.722Z,14.47
2022-08-11T03:54:38.656Z,14.48
2022-08-11T03:55:56.837Z,14.48
2022-08-11T03:57:35.280Z,14.41
2022-08-11T03:59:14.173Z,14.44
2022-08-11T04:00:36.894Z,14.44
2022-08-11T04:01:48.080Z,14.41
2022-08-11T04:03:01.485Z,14.40
2022-08-11T04:04:28.851Z,14.42
2022-08-11T04:06:08.827Z,14.39
2022-08-11T04:07:17.514Z,14.43
2022-08-11T04:08:25.668Z,14.48
2022-08-11T04:10:13.145Z,14.47
2022-08-11T04:11:20.293Z,14.48
2022-08-11T04:13:06.069Z,14.48
2022-08-11T04:14:30.485Z,14.54
2022-08-11T04:15:49.932Z,14.57
2022-08-11T04:17:22.808Z,14.55
2022-08-11T04:18:53.889Z,14.60
2022-08-11T04:20:22.839Z,14.62
2022-08-11T04:21:55.726Z,14.68
2022-08-11T04:23:12.359Z,14.72
2022-08-11T04:25:11.057Z,14.74
2022-08-11T04:26:37.705Z,14.68
2022-08-11T04:28:31.307Z,14.67
2022-08-11T04:30:09.119Z,14.78
2022-08-11T04:31:51.960Z,14.92
2022-08-11T04:33:02.978Z,14.94
2022-08-11T04:34:32.635Z,15.00
2022-08-11T04:35:51.111Z,15.02
2022-08-11T04:37:12.585Z,15.08
2022-08-11T04:38:30.030Z,15.14
2022-08-11T04:40:05.764Z,15.22
2022-08-11T04:41:13.069Z,15.27
2022-08-11T04:42:32.739Z,15.33
2022-08-11T04:44:05.976Z,15.41
2022-08-11T04:45:35.567Z,15.48
2022-08-11T04:47:09.226Z,15.54
2022-08-11T04:48:16.670Z,15.59
2022-08-11T04:50:03.888Z,15.63
2022-08-11T04:52:02.035Z,15.62
2022-08-11T04:53:19.246Z,15.63
2022-08-11T04:54:32.640Z,15.67
2022-08-11T04:56:11.752Z,15.76
2022-08-11T04:57:37.449Z,15.86
2022-08-11T04:59:00.724Z,15.88
2022-08-11T05:00:10.797Z,15.76
2022-08-11T05:01:24.411Z,15.78
2022-08-11T05:02:55.326Z,15.91
2022-08-11T05:04:11.846Z,15.96
2022-08-11T05:05:23.423Z,16.03
2022-08-11T05:06:36.094Z,16.17
2022-08-11T05:08:28.680Z,16.30
2022-08-11T05:10:03.868Z,16.36
2022-08-11T05:11:30.592Z,16.42
2022-08-11T05:12:46.305Z,16.54
2022-08-11T05:14:04.470Z,16.60
2022-08-11T05:15:12.921Z,16.63
2022-08-11T05:16:19.618Z,16.66
2022-08-11T05:17:34.407Z,16.72
2022-08-11T05:18:45.774Z,16.81
2022-08-11T05:19:48.621Z,16.86
2022-08-11T05:20:58.689Z,16.83
2022-08-11T05:22:00.899Z,16.85
2022-08-11T05:23:05.671Z,16.91
2022-08-11T05:24:22.519Z,16.98
2022-08-11T05:26:43.828Z,17.12
2022-08-11T05:26:52.978Z,17.26
2022-08-11T05:28:05.812Z,17.52
2022-08-11T05:29:27.366Z,17.64
2022-08-11T05:30:34.452Z,17.60
2022-08-11T05:31:39.066Z,17.58
2022-08-11T05:32:43.783Z,17.65
2022-08-11T05:33:47.577Z,17.69
2022-08-11T05:34:53.656Z,17.79
2022-08-11T05:36:12.387Z,17.88
2022-08-11T05:37:31.023Z,17.94
2022-08-11T05:38:35.455Z,17.89
2022-08-11T05:39:46.776Z,17.83
2022-08-11T05:40:51.267Z,17.82
2022-08-11T05:41:59.041Z,17.76
2022-08-11T05:43:03.130Z,17.82
2022-08-11T05:44:19.964Z,18.04
2022-08-11T05:45:24.252Z,18.30
2022-08-11T05:46:27.948Z,18.42
2022-08-11T05:47:29.666Z,18.53
2022-08-11T05:48:34.513Z,18.59
2022-08-11T05:49:37.108Z,18.70
2022-08-11T05:50:40.187Z,18.79
2022-08-11T05:51:54.564Z,18.53
2022-08-11T05:52:57.712Z,18.64
2022-08-11T05:54:01.075Z,18.89
2022-08-11T05:55:07.375Z,19.09
2022-08-11T05:56:09.452Z,19.28
2022-08-11T05:57:49.954Z,19.57
2022-08-11T05:58:45.170Z,19.78
2022-08-11T05:59:47.686Z,19.85
2022-08-11T06:00:49.478Z,19.79
2022-08-11T06:01:52.282Z,19.82
2022-08-11T06:02:56.351Z,19.79
2022-08-11T06:04:06.752Z,19.80
2022-08-11T06:05:09.212Z,19.84
2022-08-11T06:06:12.016Z,19.77
2022-08-11T06:07:13.910Z,19.75
2022-08-11T06:08:15.611Z,19.75
2022-08-11T06:09:34.793Z,19.84
2022-08-11T06:10:39.322Z,19.91
2022-08-11T06:11:46.969Z,20.05
2022-08-11T06:12:53.387Z,20.15
2022-08-11T06:13:56.779Z,20.28
2022-08-11T06:15:02.170Z,20.40
2022-08-11T06:16:06.987Z,20.52
2022-08-11T06:17:09.092Z,20.64
2022-08-11T06:18:12.046Z,20.74
2022-08-11T06:19:13.949Z,20.66
2022-08-11T06:20:18.001Z,20.66
2022-08-11T06:21:21.970Z,20.57
2022-08-11T06:22:24.928Z,20.56
2022-08-11T06:23:33.512Z,20.69
2022-08-11T06:24:41.480Z,20.81
2022-08-11T06:25:43.120Z,20.84
2022-08-11T06:27:11.306Z,20.92
2022-08-11T06:28:15.985Z,20.89
2022-08-11T06:29:23.870Z,21.00
2022-08-11T06:30:45.590Z,21.13
2022-08-11T06:32:03.889Z,21.22
2022-08-11T06:33:10.109Z,21.30
2022-08-11T06:34:27.100Z,21.39
2022-08-11T06:35:59.675Z,21.52
2022-08-11T06:37:13.728Z,21.60
2022-08-11T06:38:21.286Z,21.68
2022-08-11T06:39:33.234Z,21.78
2022-08-11T06:40:51.075Z,21.88
2022-08-11T06:42:01.013Z,21.98
2022-08-11T06:43:27.441Z,22.07
2022-08-11T06:45:09.199Z,22.09
2022-08-11T06:46:24.697Z,22.10
2022-08-11T06:47:30.440Z,22.16
2022-08-11T06:48:33.545Z,22.22
2022-08-11T06:49:42.601Z,22.28
2022-08-11T06:50:50.793Z,22.35
2022-08-11T06:51:52.456Z,22.32
2022-08-11T06:52:54.421Z,22.33
2022-08-11T06:54:04.776Z,22.38
2022-08-11T06:55:55.884Z,22.48
2022-08-11T06:56:47.597Z,22.54
2022-08-11T06:57:49.272Z,22.65
2022-08-11T06:58:51.515Z,22.73
2022-08-11T06:59:54.274Z,22.83
2022-08-11T07:00:58.629Z,22.85
2022-08-11T07:02:09.379Z,22.88
2022-08-11T07:03:15.794Z,22.92
2022-08-11T07:04:36.103Z,22.99
2022-08-11T07:05:37.496Z,23.08
2022-08-11T07:07:01.500Z,22.99
2022-08-11T07:08:33.766Z,23.07
2022-08-11T07:10:19.320Z,23.12
2022-08-11T07:11:59.075Z,23.22
2022-08-11T07:13:01.224Z,23.28
2022-08-11T07:14:04.175Z,23.34
2022-08-11T07:15:09.591Z,23.41
2022-08-11T07:16:15.734Z,23.49
2022-08-11T07:17:22.664Z,23.44
2022-08-11T07:18:28.346Z,23.40
2022-08-11T07:19:31.049Z,23.43
2022-08-11T07:20:32.646Z,23.46
2022-08-11T07:22:00.362Z,23.52
2022-08-11T07:23:01.260Z,23.63
2022-08-11T07:24:08.142Z,23.61
2022-08-11T07:25:16.877Z,23.44
2022-08-11T07:26:21.838Z,23.48
2022-08-11T07:27:32.353Z,23.51
2022-08-11T07:28:42.272Z,23.55
2022-08-11T07:29:46.885Z,23.59
2022-08-11T07:30:51.885Z,23.68
2022-08-11T07:31:56.094Z,23.73
2022-08-11T07:33:00.893Z,23.73
2022-08-11T07:34:28.176Z,23.73
2022-08-11T07:35:45.668Z,23.80
2022-08-11T07:36:55.571Z,23.92
2022-08-11T07:38:04.102Z,24.00
2022-08-11T07:39:16.956Z,23.99
2022-08-11T07:40:25.849Z,24.02
2022-08-11T07:41:28.271Z,24.04
2022-08-11T07:42:34.465Z,24.09
2022-08-11T07:43:36.302Z,24.14
2022-08-11T07:44:40.258Z,24.10
2022-08-11T07:45:45.382Z,24.12
2022-08-11T07:46:49.245Z,24.17
2022-08-11T07:47:54.164Z,24.23
2022-08-11T07:48:56.641Z,24.31
2022-08-11T07:49:59.781Z,24.33
2022-08-11T07:51:02.270Z,24.34
2022-08-11T07:52:04.205Z,24.42
2022-08-11T07:53:06.148Z,24.51
2022-08-11T07:54:16.541Z,24.56
2022-08-11T07:55:20.927Z,24.65
2022-08-11T07:57:07.465Z,24.60
2022-08-11T07:58:15.050Z,24.60
2022-08-11T07:59:19.367Z,24.76
2022-08-11T08:00:24.474Z,24.79
2022-08-11T08:01:32.141Z,24.74
2022-08-11T08:02:35.289Z,24.65
2022-08-11T08:03:37.314Z,24.66
2022-08-11T08:04:44.173Z,24.70
2022-08-11T08:05:49.740Z,24.69
2022-08-11T08:06:52.398Z,24.68
2022-08-11T08:07:54.090Z,24.79
2022-08-11T08:08:57.767Z,24.84
2022-08-11T08:10:02.403Z,24.84
2022-08-11T08:11:04.375Z,24.88
2022-08-11T08:12:08.199Z,24.87
2022-08-11T08:13:09.966Z,24.91
2022-08-11T08:14:12.050Z,24.94
2022-08-11T08:15:15.770Z,24.97
2022-08-11T08:16:17.655Z,25.06
2022-08-11T08:17:21.404Z,25.16
2022-08-11T08:18:26.769Z,25.23
2022-08-11T08:19:29.774Z,25.26
2022-08-11T08:20:51.631Z,25.27
2022-08-11T08:21:54.014Z,25.16
2022-08-11T08:23:08.347Z,25.17
2022-08-11T08:24:10.432Z,25.13
2022-08-11T08:25:14.095Z,25.07
2022-08-11T08:26:16.838Z,25.07
2022-08-11T08:27:20.691Z,25.12
2022-08-11T08:28:22.407Z,25.19
2022-08-11T08:29:25.922Z,25.17
2022-08-11T08:30:28.620Z,25.22
2022-08-11T08:31:30.339Z,25.29
2022-08-11T08:32:32.622Z,25.33
2022-08-11T08:33:34.871Z,25.33
2022-08-11T08:34:37.634Z,25.40
2022-08-11T08:35:54.541Z,25.52
2022-08-11T08:36:58.366Z,25.56
2022-08-11T08:38:00.293Z,25.57
2022-08-11T08:39:02.070Z,25.61
2022-08-11T08:40:06.923Z,25.58
2022-08-11T08:41:10.017Z,25.58
2022-08-11T08:42:20.164Z,25.61
2022-08-11T08:43:23.631Z,25.58
2022-08-11T08:44:38.351Z,25.61
2022-08-11T08:45:43.276Z,25.67
2022-08-11T08:46:49.297Z,25.72
2022-08-11T08:48:02.563Z,25.71
2022-08-11T08:49:05.347Z,25.83
2022-08-11T08:50:16.708Z,25.93
2022-08-11T08:51:19.107Z,26.04
2022-08-11T08:52:33.205Z,26.10
2022-08-11T08:53:49.977Z,26.20
2022-08-11T08:54:58.141Z,26.25
2022-08-11T08:56:01.771Z,26.30
2022-08-11T08:57:07.925Z,26.39
2022-08-11T08:58:10.841Z,26.44
2022-08-11T08:59:14.619Z,26.43
2022-08-11T09:00:20.905Z,26.45
2022-08-11T09:01:27.190Z,26.40
2022-08-11T09:02:44.002Z,26.33
2022-08-11T09:04:04.737Z,26.44
2022-08-11T09:05:07.833Z,26.62
2022-08-11T09:06:10.356Z,26.72
2022-08-11T09:07:13.258Z,26.79
2022-08-11T09:08:17.289Z,26.84
2022-08-11T09:09:20.111Z,26.91
2022-08-11T09:10:21.602Z,26.87
2022-08-11T09:11:23.755Z,26.88
2022-08-11T09:12:36.599Z,26.86
2022-08-11T09:13:40.313Z,26.92
2022-08-11T09:14:43.960Z,26.93
2022-08-11T09:15:45.529Z,26.89
2022-08-11T09:16:47.537Z,26.94
2022-08-11T09:17:50.277Z,27.00
2022-08-11T09:18:52.501Z,27.00
2022-08-11T09:19:58.682Z,26.92
2022-08-11T09:21:02.209Z,26.80
2022-08-11T09:22:04.172Z,26.77
2022-08-11T09:24:28.755Z,26.79
2022-08-11T09:25:31.606Z,26.63
2022-08-11T09:26:33.760Z,26.48
2022-08-11T09:27:35.493Z,26.50
2022-08-11T09:28:37.128Z,26.31
2022-08-11T09:29:38.691Z,26.32
2022-08-11T09:30:44.281Z,26.27
2022-08-11T09:31:46.174Z,26.24
2022-08-11T09:32:47.952Z,26.22
2022-08-11T09:33:52.053Z,26.20
2022-08-11T09:34:54.218Z,26.17
2022-08-11T09:35:57.174Z,26.13
2022-08-11T09:36:59.155Z,26.00
2022-08-11T09:38:01.672Z,25.90
2022-08-11T09:39:04.681Z,25.92
2022-08-11T09:40:07.388Z,25.95
2022-08-11T09:41:09.647Z,25.94
2022-08-11T09:42:16.251Z,25.80
2022-08-11T09:43:19.096Z,25.70
2022-08-11T09:44:21.420Z,25.65
2022-08-11T09:45:22.872Z,25.66
2022-08-11T09:46:25.685Z,25.65
2022-08-11T09:47:30.221Z,25.60
2022-08-11T09:48:35.183Z,25.51
2022-08-11T09:49:37.543Z,25.39
2022-08-11T09:50:39.000Z,25.33
2022-08-11T09:51:41.433Z,25.32
2022-08-11T09:53:35.728Z,25.27
2022-08-11T09:54:25.192Z,25.23
2022-08-11T09:55:26.789Z,25.28
2022-08-11T09:56:29.215Z,25.25
2022-08-11T09:57:30.671Z,25.24
2022-08-11T09:58:41.756Z,25.19
2022-08-11T09:59:44.930Z,25.20
2022-08-11T10:00:48.407Z,25.22
2022-08-11T10:01:52.215Z,25.10
2022-08-11T10:02:55.739Z,25.06
2022-08-11T10:03:59.847Z,25.01
2022-08-11T10:05:01.646Z,24.92
2022-08-11T10:06:07.851Z,24.88
2022-08-11T10:07:10.065Z,24.79
2022-08-11T10:08:12.525Z,24.77
2022-08-11T10:09:17.924Z,24.72
2022-08-11T10:10:21.520Z,24.63
2022-08-11T10:11:24.566Z,24.63
2022-08-11T10:12:32.440Z,24.63
2022-08-11T10:14:31.006Z,24.55
2022-08-11T10:14:58.659Z,24.54
2022-08-11T10:16:14.511Z,24.54
2022-08-11T10:17:18.817Z,24.49
2022-08-11T10:18:24.246Z,24.44
2022-08-11T10:19:26.592Z,24.42
2022-08-11T10:20:29.305Z,24.41
2022-08-11T10:21:39.910Z,24.42
2022-08-11T10:22:42.168Z,24.36
2022-08-11T10:24:00.334Z,24.30
2022-08-11T10:25:04.888Z,24.31
2022-08-11T10:26:07.089Z,24.28
2022-08-11T10:27:08.534Z,24.17
2022-08-11T10:28:28.914Z,24.14
2022-08-11T10:29:36.852Z,23.98
2022-08-11T10:30:39.285Z,23.94
2022-08-11T10:31:57.987Z,23.92
2022-08-11T10:33:02.577Z,23.86
2022-08-11T10:34:09.605Z,23.82
2022-08-11T10:35:14.787Z,23.78
2022-08-11T10:36:18.367Z,23.66
2022-08-11T10:37:21.260Z,23.64
2022-08-11T10:38:22.898Z,23.66
2022-08-11T10:39:24.495Z,23.66
2022-08-11T10:40:26.525Z,23.66
2022-08-11T10:41:30.674Z,23.67
2022-08-11T10:42:55.164Z,23.69
2022-08-11T10:44:01.521Z,23.73
2022-08-11T10:45:05.351Z,23.89
2022-08-11T10:46:09.223Z,24.07
2022-08-11T10:47:11.689Z,24.22
2022-08-11T10:48:15.519Z,24.49
2022-08-11T10:49:18.715Z,24.74
2022-08-11T10:50:20.513Z,24.93
2022-08-11T10:51:42.836Z,25.12
2022-08-11T10:52:46.705Z,25.26
2022-08-11T10:53:50.707Z,25.32
2022-08-11T10:54:52.611Z,25.34
2022-08-11T10:55:54.680Z,25.32
2022-08-11T10:57:01.018Z,25.36
2022-08-11T10:58:04.144Z,25.47
2022-08-11T10:59:07.937Z,25.59
2022-08-11T11:00:12.067Z,25.61
2022-08-11T11:01:14.888Z,25.64
2022-08-11T11:02:16.638Z,25.61
2022-08-11T11:03:23.761Z,25.60
2022-08-11T11:04:45.577Z,25.53
2022-08-11T11:06:27.923Z,25.64
2022-08-11T11:07:22.423Z,25.80
2022-08-11T11:08:28.057Z,25.90
2022-08-11T11:09:34.434Z,25.92
2022-08-11T11:10:35.959Z,26.05
2022-08-11T11:11:38.405Z,26.13
2022-08-11T11:12:41.400Z,26.15
2022-08-11T11:13:53.293Z,26.12
2022-08-11T11:14:59.183Z,26.23
2022-08-11T11:16:00.752Z,26.39
2022-08-11T11:17:03.390Z,26.54
2022-08-11T11:18:07.069Z,26.64
2022-08-11T11:19:10.050Z,26.72
2022-08-11T11:20:36.918Z,26.75
2022-08-11T11:21:38.433Z,26.79
2022-08-11T11:22:41.176Z,26.78
2022-08-11T11:23:56.133Z,26.64
2022-08-11T11:25:08.627Z,26.50
2022-08-11T11:26:09.999Z,26.25
2022-08-11T11:27:11.423Z,26.24
2022-08-11T11:28:32.754Z,26.24
2022-08-11T11:29:34.106Z,26.33
2022-08-11T11:30:41.386Z,26.42
2022-08-11T11:31:42.778Z,26.49
2022-08-11T11:32:49.684Z,26.46
2022-08-11T11:34:06.836Z,26.35
2022-08-11T11:35:20.612Z,26.23
2022-08-11T11:37:03.245Z,26.21
2022-08-11T11:38:08.374Z,26.26
2022-08-11T11:39:12.143Z,26.38
2022-08-11T11:40:16.555Z,26.56
2022-08-11T11:41:17.971Z,26.74
2022-08-11T11:42:20.657Z,26.91
2022-08-11T11:43:22.158Z,27.01
2022-08-11T11:44:24.081Z,27.15
2022-08-11T11:45:25.681Z,27.26
2022-08-11T11:46:30.218Z,27.24
2022-08-11T11:47:32.702Z,27.18
2022-08-11T11:48:34.751Z,27.20
2022-08-11T11:49:36.516Z,27.23
2022-08-11T11:50:38.271Z,27.21
2022-08-11T11:51:39.845Z,27.23
2022-08-11T11:52:42.176Z,27.23
2022-08-11T11:53:44.715Z,27.16
2022-08-11T11:54:47.316Z,27.13
2022-08-11T11:55:48.959Z,27.01
2022-08-11T11:56:52.288Z,27.08
2022-08-11T11:57:59.063Z,27.12
2022-08-11T11:59:01.552Z,26.98
2022-08-11T12:00:06.765Z,26.88
2022-08-11T12:01:10.932Z,26.79
2022-08-11T12:02:14.836Z,26.79
2022-08-11T12:03:17.116Z,26.87
2022-08-11T12:04:19.984Z,26.78
2022-08-11T12:05:22.110Z,26.69
2022-08-11T12:06:24.107Z,26.73
2022-08-11T12:07:25.641Z,26.84
2022-08-11T12:08:27.970Z,26.91
2022-08-11T12:09:29.515Z,26.90
2022-08-11T12:10:31.667Z,26.93
2022-08-11T12:11:33.929Z,26.93
2022-08-11T12:12:35.427Z,26.97
2022-08-11T12:13:37.784Z,26.90
2022-08-11T12:14:39.212Z,26.86
2022-08-11T12:16:05.399Z,26.73
2022-08-11T12:17:02.524Z,26.89
2022-08-11T12:18:04.524Z,27.08
2022-08-11T12:19:11.012Z,27.14
2022-08-11T12:20:31.722Z,27.17
2022-08-11T12:21:35.799Z,27.30
2022-08-11T12:22:37.246Z,27.41
2022-08-11T12:23:40.001Z,27.43
2022-08-11T12:24:42.025Z,27.26
2022-08-11T12:25:44.478Z,27.20
2022-08-11T12:26:46.869Z,27.12
2022-08-11T12:28:08.281Z,27.27
2022-08-11T12:29:11.023Z,27.31
2022-08-11T12:30:12.986Z,27.43
2022-08-11T12:31:14.615Z,27.52
2022-08-11T12:32:16.074Z,27.56
2022-08-11T12:33:23.879Z,27.60
2022-08-11T12:34:27.336Z,27.60
2022-08-11T12:35:28.876Z,27.58
2022-08-11T12:36:31.989Z,27.47
2022-08-11T12:37:41.287Z,27.36
2022-08-11T12:38:46.715Z,27.18
2022-08-11T12:40:16.400Z,26.95
2022-08-11T12:41:17.316Z,26.74
2022-08-11T12:42:19.489Z,26.63
2022-08-11T12:43:24.207Z,26.52
2022-08-11T12:44:38.587Z,26.44
2022-08-11T12:45:41.049Z,26.34
2022-08-11T12:46:44.081Z,26.21
2022-08-11T12:48:40.234Z,26.08
2022-08-11T12:49:15.312Z,25.98
2022-08-11T12:50:22.688Z,25.89
2022-08-11T12:51:25.673Z,25.85
2022-08-11T12:52:29.840Z,25.85
2022-08-11T12:53:32.333Z,25.85
2022-08-11T12:54:49.985Z,25.80
2022-08-11T12:56:03.920Z,25.75
2022-08-11T12:57:12.377Z,25.78
2022-08-11T12:58:15.673Z,25.79
2022-08-11T12:59:17.463Z,25.66
2022-08-11T13:00:19.325Z,25.63
2022-08-11T13:01:20.972Z,25.60
2022-08-11T13:02:23.952Z,25.58
2022-08-11T13:03:29.768Z,25.63
2022-08-11T13:04:31.395Z,25.67
2022-08-11T13:05:33.277Z,25.72
2022-08-11T13:06:46.056Z,25.72
2022-08-11T13:07:50.715Z,25.74
2022-08-11T13:08:53.723Z,25.78
2022-08-11T13:09:57.349Z,25.86
2022-08-11T13:11:00.281Z,25.88
2022-08-11T13:12:01.963Z,25.95
2022-08-11T13:13:54.541Z,25.95
2022-08-11T13:14:30.305Z,25.96
2022-08-11T13:15:32.031Z,26.06
2022-08-11T13:16:35.115Z,26.20
2022-08-11T13:17:43.537Z,26.34
2022-08-11T13:18:46.309Z,26.41
2022-08-11T13:19:49.795Z,26.47
2022-08-11T13:20:55.820Z,26.49
2022-08-11T13:21:57.577Z,26.57
2022-08-11T13:22:59.752Z,26.76
2022-08-11T13:24:03.305Z,26.86
2022-08-11T13:25:05.806Z,26.88
2022-08-11T13:26:07.355Z,26.80
2022-08-11T13:27:09.009Z,26.80
2022-08-11T13:28:10.463Z,26.77
2022-08-11T13:29:12.225Z,26.77
2022-08-11T13:30:17.204Z,26.83
2022-08-11T13:31:18.644Z,26.99
2022-08-11T13:32:20.688Z,27.08
2022-08-11T13:33:22.394Z,27.12
2022-08-11T13:34:24.759Z,27.19
2022-08-11T13:35:27.821Z,27.30
2022-08-11T13:36:29.445Z,27.40
2022-08-11T13:38:19.810Z,27.48
2022-08-11T13:38:54.707Z,27.49
2022-08-11T13:39:56.201Z,27.49
2022-08-11T13:40:57.806Z,27.58
2022-08-11T13:42:00.809Z,27.66
2022-08-11T13:43:02.442Z,27.77
2022-08-11T13:44:04.486Z,27.76
2022-08-11T13:45:07.030Z,27.63
2022-08-11T13:46:08.460Z,27.50
2022-08-11T13:47:12.070Z,27.35
2022-08-11T13:48:13.845Z,27.34
2022-08-11T13:49:19.070Z,27.41
2022-08-11T13:50:20.634Z,27.50
2022-08-11T13:51:23.207Z,27.45
2022-08-11T13:52:37.105Z,27.40
2022-08-11T13:53:38.613Z,27.30
2022-08-11T13:54:40.728Z,27.21
2022-08-11T13:55:51.392Z,27.14
2022-08-11T13:56:57.762Z,27.14
2022-08-11T13:58:08.469Z,27.16
2022-08-11T13:59:23.831Z,27.04
2022-08-11T14:00:29.003Z,27.01
2022-08-11T14:02:23.023Z,27.04
2022-08-11T14:02:53.987Z,27.18
2022-08-11T14:04:31.083Z,27.25
2022-08-11T14:05:19.774Z,27.41
2022-08-11T14:06:22.048Z,27.44
2022-08-11T14:07:25.708Z,27.44
2022-08-11T14:08:37.277Z,27.38
2022-08-11T14:09:41.089Z,27.45
2022-08-11T14:10:43.935Z,27.34
2022-08-11T14:12:21.920Z,27.23
2022-08-11T14:13:08.775Z,26.96
2022-08-11T14:14:11.643Z,26.77
2022-08-11T14:15:17.905Z,26.65
2022-08-11T14:16:21.848Z,26.56
2022-08-11T14:17:47.131Z,26.47
2022-08-11T14:18:46.195Z,26.47
2022-08-11T14:19:50.837Z,26.45
2022-08-11T14:20:54.903Z,26.34
2022-08-11T14:21:59.334Z,26.34
2022-08-11T14:23:02.211Z,26.30
2022-08-11T14:24:03.922Z,26.26
2022-08-11T14:25:05.663Z,26.28
2022-08-11T14:26:08.778Z,26.25
2022-08-11T14:28:32.695Z,26.19
2022-08-11T14:28:40.053Z,26.15
2022-08-11T14:29:48.741Z,26.08
2022-08-11T14:30:50.322Z,25.96
2022-08-11T14:31:53.310Z,25.87
2022-08-11T14:32:56.298Z,25.82
2022-08-11T14:34:03.196Z,25.76
2022-08-11T14:35:05.685Z,25.63
2022-08-11T14:36:08.593Z,25.63
2022-08-11T14:37:11.911Z,25.62
2022-08-11T14:38:13.450Z,25.63
2022-08-11T14:39:16.163Z,25.62
2022-08-11T14:40:17.692Z,25.56
2022-08-11T14:41:20.902Z,25.54
2022-08-11T14:42:23.552Z,25.52
2022-08-11T14:44:05.835Z,25.53
2022-08-11T14:44:48.384Z,25.47
2022-08-11T14:45:57.641Z,25.42
2022-08-11T14:47:01.078Z,25.44
2022-08-11T14:48:05.391Z,25.44
2022-08-11T14:49:06.959Z,25.38
2022-08-11T14:50:12.826Z,25.48
2022-08-11T14:51:14.313Z,25.61
2022-08-11T14:52:17.271Z,25.78
2022-08-11T14:53:21.564Z,25.89
2022-08-11T14:54:25.549Z,26.01
2022-08-11T14:55:31.571Z,26.17
2022-08-11T14:56:33.026Z,26.24
2022-08-11T14:57:55.774Z,26.30
2022-08-11T14:58:58.030Z,26.42
2022-08-11T15:00:00.932Z,26.51
2022-08-11T15:01:03.415Z,26.59
2022-08-11T15:02:05.562Z,26.69
2022-08-11T15:03:07.901Z,26.80
2022-08-11T15:04:36.687Z,26.83
2022-08-11T15:05:31.383Z,26.83
2022-08-11T15:06:33.216Z,26.85
2022-08-11T15:07:35.042Z,26.84
2022-08-11T15:08:38.781Z,26.77
2022-08-11T15:09:56.252Z,26.71
2022-08-11T15:11:02.852Z,26.60
2022-08-11T15:12:04.502Z,26.48
2022-08-11T15:13:06.341Z,26.37
2022-08-11T15:14:09.008Z,26.23
2022-08-11T15:15:11.568Z,26.09
2022-08-11T15:16:13.059Z,25.94
2022-08-11T15:17:15.552Z,25.87